Time;durP1;ratioP1;P1;durP2;ratioP2;P2;SDS_P1;SDS_P2;PMS_P1;PMS_P2;Temp;Humidity;BMP_temperature;BMP_pressure;BME280_temperature;BME280_humidity;BME280_pressure;Samples;Min_cycle;Max_cycle;Signal;HPM_P1;HPM_P2
2024/04/25 00:00:31;;;;;;;;;;;;;;;19.11;62.57;97584.81;6536327;21;19921;-77
2024/04/25 00:02:59;;;;;;;;;;;;;;;19.09;62.49;97586.84;6582479;21;20233;-76
2024/04/25 00:05:24;;;;;;;;;;;;;;;19.07;62.21;97589.69;6537195;21;20349;-76
2024/04/25 00:07:50;;;;;;;;;;;;;;;19.06;62.36;97593.34;6536460;21;19991;-76
2024/04/25 00:10:15;;;;;;;;;;;;;;;19.05;62.18;97588.25;6579788;21;19928;-77
2024/04/25 00:12:43;;;;;;;;;;;;;;;19.04;62.40;97589.25;6579920;21;19933;-77
2024/04/25 00:15:09;;;;;;;;;;;;;;;19.05;62.48;97593.53;6536703;21;20302;-76
2024/04/25 00:17:34;;;;;;;;;;;;;;;19.04;62.39;97591.91;6536695;21;19921;-77
2024/04/25 00:20:00;;;;;;;;;;;;;;;19.01;62.38;97601.06;6582612;21;19980;-76
2024/04/25 00:22:25;;;;;;;;;;;;;;;19.02;62.35;97596.59;6581496;21;20009;-77
2024/04/25 00:24:50;;;;;;;;;;;;;;;19.00;61.98;97596.78;6579845;21;19921;-76
2024/04/25 00:27:15;;;;;;;;;;;;;;;19.00;62.42;97601.25;6581235;21;19921;-77
2024/04/25 00:29:41;;;;;;;;;;;;;;;19.00;62.14;97595.97;6578863;21;19928;-77
2024/04/25 00:32:06;;;;;;;;;;;;;;;18.99;62.14;97597.78;6581068;21;20301;-77
2024/04/25 00:34:35;;;;;;;;;;;;;;;18.98;62.04;97588.25;6582510;21;19929;-77
2024/04/25 00:37:00;;;;;;;;;;;;;;;18.98;62.35;97594.34;6579847;21;20310;-78
2024/04/25 00:39:26;;;;;;;;;;;;;;;18.96;62.27;97596.38;6582389;21;19933;-76
2024/04/25 00:41:52;;;;;;;;;;;;;;;18.96;62.22;97588.44;6579710;21;20309;-77
2024/04/25 00:44:17;;;;;;;;;;;;;;;18.92;62.32;97581.91;6580772;21;19929;-77
2024/04/25 00:46:42;;;;;;;;;;;;;;;18.90;62.23;97578.66;6580036;21;19928;-76
2024/04/25 00:49:08;;;;;;;;;;;;;;;18.89;62.28;97570.91;6579807;21;20392;-77
2024/04/25 00:51:33;;;;;;;;;;;;;;;18.88;62.09;97574.56;6536221;21;19921;-77
2024/04/25 00:53:58;;;;;;;;;;;;;;;18.85;62.02;97577.59;6581336;21;19922;-77
2024/04/25 00:56:25;;;;;;;;;;;;;;;18.84;62.00;97582.09;6578883;21;19921;-77
2024/04/25 00:58:50;;;;;;;;;;;;;;;18.81;61.85;97580.59;6582498;21;20230;-76
2024/04/25 01:01:15;;;;;;;;;;;;;;;18.81;62.05;97585.91;6580553;21;19922;-76
2024/04/25 01:03:41;;;;;;;;;;;;;;;18.78;62.07;97581.00;6580238;21;19992;-77
2024/04/25 01:06:07;;;;;;;;;;;;;;;18.78;61.95;97582.84;6579907;21;19921;-76
2024/04/25 01:08:32;;;;;;;;;;;;;;;18.77;61.93;97589.97;6533556;21;19922;-76
2024/04/25 01:10:58;;;;;;;;;;;;;;;18.76;61.91;97588.31;6536336;21;19921;-76
2024/04/25 01:13:23;;;;;;;;;;;;;;;18.76;61.94;97590.97;6580085;21;19921;-76
2024/04/25 01:15:48;;;;;;;;;;;;;;;18.74;61.90;97592.19;6579744;21;19921;-76
2024/04/25 01:18:14;;;;;;;;;;;;;;;18.73;62.24;97586.06;6535460;21;20244;-76
2024/04/25 01:20:39;;;;;;;;;;;;;;;18.71;62.10;97587.31;6579590;21;19921;-76
2024/04/25 01:23:06;;;;;;;;;;;;;;;18.71;61.89;97593.41;6536464;21;19987;-76
2024/04/25 01:25:31;;;;;;;;;;;;;;;18.69;62.20;97587.50;6579368;21;20340;-76
2024/04/25 01:27:57;;;;;;;;;;;;;;;18.68;61.64;97592.97;6579064;21;19921;-76
2024/04/25 01:30:22;;;;;;;;;;;;;;;18.68;61.83;97592.97;6536048;21;19921;-76
2024/04/25 01:32:47;;;;;;;;;;;;;;;18.68;61.67;97592.97;6579769;21;19922;-76
2024/04/25 01:35:12;;;;;;;;;;;;;;;18.66;61.64;97592.34;6579480;21;19928;-76
2024/04/25 01:37:38;;;;;;;;;;;;;;;18.65;61.72;97588.91;6535619;21;19929;-76
2024/04/25 01:40:03;;;;;;;;;;;;;;;18.66;61.67;97589.69;6579475;21;19928;-76
2024/04/25 01:42:29;;;;;;;;;;;;;;;18.65;61.64;97588.09;6579556;21;19928;-72
2024/04/25 01:44:54;;;;;;;;;;;;;;;18.65;61.52;97590.72;6581899;21;20210;-76
2024/04/25 01:47:19;;;;;;;;;;;;;;;18.63;61.70;97597.03;6580059;21;19922;-76
2024/04/25 01:49:44;;;;;;;;;;;;;;;18.63;61.94;97598.84;6581682;21;19922;-76
2024/04/25 01:52:10;;;;;;;;;;;;;;;18.62;61.59;97595.38;6578332;21;19922;-76
2024/04/25 01:54:35;;;;;;;;;;;;;;;18.62;61.74;97584.81;6579786;21;20209;-76
2024/04/25 01:57:00;;;;;;;;;;;;;;;18.60;61.59;97584.19;6579478;21;19928;-77
2024/04/25 01:59:25;;;;;;;;;;;;;;;18.60;61.65;97586.03;6536191;21;19991;-76
2024/04/25 02:01:51;;;;;;;;;;;;;;;18.59;61.38;97579.91;6579625;21;19925;-76
2024/04/25 02:04:16;;;;;;;;;;;;;;;18.58;61.71;97577.47;6579060;21;19922;-76
2024/04/25 02:06:41;;;;;;;;;;;;;;;18.59;61.37;97565.91;6579556;21;19927;-76
2024/04/25 02:09:07;;;;;;;;;;;;;;;18.56;61.30;97559.16;6579024;21;19921;-76
2024/04/25 02:11:32;;;;;;;;;;;;;;;18.55;61.39;97568.13;6536135;21;19928;-76
2024/04/25 02:13:57;;;;;;;;;;;;;;;18.53;61.32;97570.16;6536123;21;19921;-76
2024/04/25 02:16:23;;;;;;;;;;;;;;;18.55;61.49;97580.50;6535506;21;19921;-76
2024/04/25 02:18:48;;;;;;;;;;;;;;;18.55;61.53;97572.56;6579563;21;19922;-76
2024/04/25 02:26:42;;;;;;;;;;;;;;;18.56;61.60;97593.53;6583101;21;19927;-77
2024/04/25 02:29:08;;;;;;;;;;;;;;;18.56;61.33;97588.22;6579033;21;19928;-76
2024/04/25 02:31:37;;;;;;;;;;;;;;;18.56;61.08;97590.88;6535796;21;19921;-76
2024/04/25 02:34:02;;;;;;;;;;;;;;;18.55;61.25;97586.63;6581989;21;20272;-76
2024/04/25 02:36:28;;;;;;;;;;;;;;;18.55;61.37;97591.91;6579122;21;19929;-76
2024/04/25 02:38:53;;;;;;;;;;;;;;;18.56;60.88;97587.44;6535536;21;20220;-76
2024/04/25 02:41:18;;;;;;;;;;;;;;;18.56;61.00;97582.94;6578800;21;19933;-76
2024/04/25 02:43:43;;;;;;;;;;;;;;;18.55;61.07;97578.69;6580110;21;19921;-76
2024/04/25 02:46:09;;;;;;;;;;;;;;;18.56;60.97;97582.94;6578847;21;20333;-76
2024/04/25 02:48:34;;;;;;;;;;;;;;;18.57;60.68;97581.13;6581061;21;19921;-76
2024/04/25 02:50:59;;;;;;;;;;;;;;;18.56;60.87;97582.13;6537073;21;19921;-76
2024/04/25 02:53:25;;;;;;;;;;;;;;;18.55;60.90;97578.69;6536535;21;19931;-76
2024/04/25 02:55:51;;;;;;;;;;;;;;;18.56;60.74;97588.22;6580245;21;19940;-76
2024/04/25 02:58:16;;;;;;;;;;;;;;;18.55;61.03;97580.50;6537465;21;19995;-76
2024/04/25 03:00:41;;;;;;;;;;;;;;;18.53;60.92;97577.25;6581635;21;19928;-76
2024/04/25 03:03:07;;;;;;;;;;;;;;;18.52;60.89;97568.50;6583221;21;19988;-76
2024/04/25 03:05:32;;;;;;;;;;;;;;;18.50;60.87;97567.06;6583089;21;19922;-76
2024/04/25 03:07:57;;;;;;;;;;;;;;;18.46;60.58;97564.00;6583232;21;19925;-76
2024/04/25 03:10:23;;;;;;;;;;;;;;;18.44;60.92;97564.22;6537140;21;20303;-77
2024/04/25 03:12:48;;;;;;;;;;;;;;;18.42;60.56;97565.41;6536942;21;19921;-77
2024/04/25 03:15:13;;;;;;;;;;;;;;;18.41;60.64;97569.06;6537521;21;19995;-77
2024/04/25 03:17:38;;;;;;;;;;;;;;;18.40;60.95;97564.78;6580367;21;19928;-76
2024/04/25 03:20:04;;;;;;;;;;;;;;;18.37;60.72;97576.56;6579987;21;20321;-76
2024/04/25 03:22:29;;;;;;;;;;;;;;;18.37;60.66;97579.19;6583470;21;20324;-77
2024/04/25 03:24:55;;;;;;;;;;;;;;;18.37;60.67;97583.66;6580477;21;19929;-75
2024/04/25 03:27:20;;;;;;;;;;;;;;;18.36;60.71;97585.50;6580780;21;19933;-77
2024/04/25 03:29:45;;;;;;;;;;;;;;;18.36;60.97;97593.44;6581048;21;20311;-78
2024/04/25 03:32:11;;;;;;;;;;;;;;;18.37;60.81;97583.66;6583616;21;19921;-78
2024/04/25 03:34:36;;;;;;;;;;;;;;;18.37;60.89;97594.25;6583136;21;19921;-78
2024/04/25 03:37:02;;;;;;;;;;;;;;;18.37;61.02;97588.97;6580938;21;19929;-78
2024/04/25 03:39:27;;;;;;;;;;;;;;;18.36;60.58;97584.66;6581328;21;19921;-79
2024/04/25 03:41:55;;;;;;;;;;;;;;;18.36;60.66;97587.31;6581029;21;20325;-78
2024/04/25 03:44:21;;;;;;;;;;;;;;;18.37;60.46;97587.13;6536632;21;19921;-78
2024/04/25 03:46:49;;;;;;;;;;;;;;;18.38;60.54;97580.84;6537277;21;19928;-79
2024/04/25 03:49:17;;;;;;;;;;;;;;;18.41;60.71;97582.28;6579989;21;19933;-79
2024/04/25 03:51:42;;;;;;;;;;;;;;;18.41;60.37;97577.81;6581092;21;19921;-78
2024/04/25 03:54:08;;;;;;;;;;;;;;;18.42;60.33;97582.09;6536193;21;19932;-73
2024/04/25 03:56:33;;;;;;;;;;;;;;;18.43;60.63;97589.00;6580383;21;19922;-73
2024/04/25 03:58:58;;;;;;;;;;;;;;;18.44;60.28;97588.00;6580039;21;19921;-72
2024/04/25 04:01:23;;;;;;;;;;;;;;;18.57;60.39;97586.44;6536673;21;20228;-73
2024/04/25 04:03:49;;;;;;;;;;;;;;;18.60;60.16;97586.84;6582101;21;19928;-75
2024/04/25 04:06:17;;;;;;;;;;;;;;;18.64;60.03;97584.63;6536998;21;19922;-72
2024/04/25 04:08:42;;;;;;;;;;;;;;;18.66;59.83;97585.25;6580449;21;20287;-83
2024/04/25 04:11:08;;;;;;;;;;;;;;;18.70;60.30;97586.47;6536500;21;19922;-84
2024/04/25 04:13:35;;;;;;;;;;;;;;;18.71;60.00;97592.59;6579197;21;19929;-84
2024/04/25 04:16:01;;;;;;;;;;;;;;;18.72;60.35;97588.91;6580253;21;19933;-85
2024/04/25 04:18:29;;;;;;;;;;;;;;;18.75;60.55;97593.81;6538072;21;19997;-80
2024/04/25 04:20:54;;;;;;;;;;;;;;;18.76;60.45;97593.63;6579271;21;19925;-80
2024/04/25 04:23:21;;;;;;;;;;;;;;;18.79;61.03;97598.50;6538708;21;19928;-78
2024/04/25 04:25:46;;;;;;;;;;;;;;;18.81;60.50;97591.19;6585018;21;19921;-77
2024/04/25 04:28:11;;;;;;;;;;;;;;;18.82;60.45;97594.66;6579592;21;20205;-76
2024/04/25 04:30:37;;;;;;;;;;;;;;;18.83;60.27;97596.28;6535456;21;20013;-80
2024/04/25 04:33:02;;;;;;;;;;;;;;;18.85;60.08;97609.34;6536037;21;19921;-74
2024/04/25 04:35:27;;;;;;;;;;;;;;;18.87;59.96;97613.41;6579723;21;19933;-74
2024/04/25 04:37:53;;;;;;;;;;;;;;;18.87;59.99;97610.78;6535126;21;20397;-76
2024/04/25 04:40:18;;;;;;;;;;;;;;;18.89;59.90;97613.22;6535990;21;20321;-74
2024/04/25 04:42:43;;;;;;;;;;;;;;;18.89;59.66;97613.22;6536614;21;19933;-74
2024/04/25 04:45:09;;;;;;;;;;;;;;;18.87;59.75;97618.72;6579828;21;19929;-73
2024/04/25 04:47:35;;;;;;;;;;;;;;;18.84;59.37;97616.47;6581857;21;19929;-74
2024/04/25 04:50:00;;;;;;;;;;;;;;;18.81;59.25;97617.63;6580032;21;20320;-73
2024/04/25 04:52:25;;;;;;;;;;;;;;;18.80;59.44;97620.47;6535833;21;19922;-74
2024/04/25 04:54:51;;;;;;;;;;;;;;;18.77;59.21;97616.41;6579576;21;20296;-74
2024/04/25 04:57:19;;;;;;;;;;;;;;;18.76;59.11;97616.59;6535934;21;19922;-74
2024/04/25 04:59:44;;;;;;;;;;;;;;;18.74;59.20;97616.00;6579773;21;19922;-74
2024/04/25 05:02:12;;;;;;;;;;;;;;;18.75;59.63;97617.59;6579430;21;19921;-74
2024/04/25 05:04:38;;;;;;;;;;;;;;;18.75;59.63;97622.88;6579794;21;20224;-75
2024/04/25 05:07:03;;;;;;;;;;;;;;;18.74;59.43;97619.44;6535788;21;19932;-74
2024/04/25 05:09:28;;;;;;;;;;;;;;;18.76;59.56;97627.19;6535511;21;20313;-74
2024/04/25 05:11:54;;;;;;;;;;;;;;;18.76;59.34;97627.97;6535166;21;19921;-74
2024/04/25 05:14:19;;;;;;;;;;;;;;;18.76;59.34;97629.81;6579718;21;20225;-75
2024/04/25 05:16:47;;;;;;;;;;;;;;;18.78;59.21;97625.94;6578829;21;19921;-75
2024/04/25 05:19:13;;;;;;;;;;;;;;;18.81;59.36;97625.56;6579185;21;19921;-74
2024/04/25 05:21:38;;;;;;;;;;;;;;;18.84;59.26;97621.75;6536037;21;19921;-73
2024/04/25 05:24:04;;;;;;;;;;;;;;;18.91;58.98;97619.94;6535982;21;19925;-75
2024/04/25 05:26:30;;;;;;;;;;;;;;;18.99;58.70;97624.22;6536211;21;19929;-74
2024/04/25 05:28:55;;;;;;;;;;;;;;;19.06;58.72;97616.34;6579361;21;19921;-73
2024/04/25 05:31:23;;;;;;;;;;;;;;;19.08;58.85;97622.22;6581671;21;20321;-75
2024/04/25 05:33:49;;;;;;;;;;;;;;;19.13;58.64;97627.75;6579812;21;20260;-74
2024/04/25 05:36:14;;;;;;;;;;;;;;;19.14;58.41;97622.25;6536177;21;19927;-74
2024/04/25 05:38:40;;;;;;;;;;;;;;;19.22;58.38;97623.09;6579266;21;20237;-75
2024/04/25 05:41:08;;;;;;;;;;;;;;;19.26;58.15;97625.16;6535517;21;19921;-74
2024/04/25 05:43:33;;;;;;;;;;;;;;;19.30;57.65;97620.25;6581451;21;19929;-76
2024/04/25 05:45:58;;;;;;;;;;;;;;;19.38;57.54;97613.97;6579260;21;19957;-74
2024/04/25 05:48:26;;;;;;;;;;;;;;;19.50;57.14;97610.53;6535740;21;20302;-75
2024/04/25 05:50:51;;;;;;;;;;;;;;;19.66;56.98;97611.97;6535555;21;20317;-75
2024/04/25 05:53:18;;;;;;;;;;;;;;;19.80;56.36;97604.06;6578531;21;19922;-75
2024/04/25 05:55:43;;;;;;;;;;;;;;;19.95;56.08;97606.50;6580871;21;19991;-76
2024/04/25 05:58:08;;;;;;;;;;;;;;;20.18;56.07;97609.53;6581862;21;20276;-75
2024/04/25 06:00:33;;;;;;;;;;;;;;;20.52;54.76;97609.47;6579444;21;19928;-73
2024/04/25 06:03:00;;;;;;;;;;;;;;;20.76;53.64;97602.66;6579685;21;19972;-72
2024/04/25 06:05:25;;;;;;;;;;;;;;;21.06;52.59;97602.13;6579189;21;19922;-73
2024/04/25 06:07:51;;;;;;;;;;;;;;;21.40;51.59;97597.47;6577861;21;20279;-73
2024/04/25 06:10:21;;;;;;;;;;;;;;;21.76;50.27;97593.31;6535566;21;20206;-72
2024/04/25 06:12:46;;;;;;;;;;;;;;;22.11;49.29;97598.94;6579521;21;19961;-71
2024/04/25 06:15:12;;;;;;;;;;;;;;;22.40;48.60;97591.31;6535629;21;19921;-73
2024/04/25 06:17:38;;;;;;;;;;;;;;;22.45;48.52;97588.00;6537430;21;20267;-75
2024/04/25 06:20:04;;;;;;;;;;;;;;;22.55;48.16;97593.59;6580671;21;20329;-73
2024/04/25 06:22:29;;;;;;;;;;;;;;;22.64;47.78;97596.78;6582195;21;19990;-72
2024/04/25 06:24:59;;;;;;;;;;;;;;;22.71;47.44;97603.66;6581622;21;19921;-72
2024/04/25 06:27:24;;;;;;;;;;;;;;;22.71;47.08;97597.53;6581387;21;19921;-72
2024/04/25 06:29:50;;;;;;;;;;;;;;;22.81;47.03;97607.66;6537770;21;19927;-72
2024/04/25 06:32:15;;;;;;;;;;;;;;;22.98;47.03;97613.97;6583536;21;19992;-77
2024/04/25 06:34:40;;;;;;;;;;;;;;;22.99;47.06;97594.28;6582050;21;19991;-74
2024/04/25 06:37:07;;;;;;;;;;;;;;;22.93;47.57;97601.34;6581416;21;19933;-73
2024/04/25 06:39:33;;;;;;;;;;;;;;;22.88;47.56;97597.72;6581106;21;19921;-73
2024/04/25 06:42:00;;;;;;;;;;;;;;;22.87;47.64;97599.56;6581021;21;19928;-75
2024/04/25 06:44:26;;;;;;;;;;;;;;;22.87;47.80;97598.78;6581358;21;19929;-75
2024/04/25 06:46:51;;;;;;;;;;;;;;;22.83;47.72;97603.72;6581593;21;19921;-77
2024/04/25 06:49:17;;;;;;;;;;;;;;;22.86;47.85;97605.13;6585283;21;19922;-85
2024/04/25 06:51:42;;;;;;;;;;;;;;;22.79;48.19;97615.03;6586216;21;19928;-79
2024/04/25 06:54:07;;;;;;;;;;;;;;;22.86;48.14;97611.25;6584414;21;19922;-79
2024/04/25 06:56:33;;;;;;;;;;;;;;;23.06;47.64;97599.56;6582009;21;20213;-82
2024/04/25 06:58:58;;;;;;;;;;;;;;;23.39;46.73;97608.94;6584574;21;19921;-80
2024/04/25 07:01:23;;;;;;;;;;;;;;;23.43;46.79;97613.59;6581910;21;19921;-83
2024/04/25 07:03:49;;;;;;;;;;;;;;;23.33;47.24;97612.53;6582381;21;19934;-82
2024/04/25 07:06:14;;;;;;;;;;;;;;;23.32;47.49;97611.69;6583393;21;19921;-81
2024/04/25 07:08:39;;;;;;;;;;;;;;;23.34;47.53;97606.16;6538336;21;19928;-78
2024/04/25 07:11:05;;;;;;;;;;;;;;;23.31;47.49;97612.75;6583928;21;19921;-79
2024/04/25 07:13:30;;;;;;;;;;;;;;;23.20;47.63;97614.34;6538397;21;19921;-78
2024/04/25 07:15:55;;;;;;;;;;;;;;;23.21;48.04;97623.13;6583852;21;19933;-79
2024/04/25 07:18:21;;;;;;;;;;;;;;;23.27;48.12;97617.69;6581301;21;20321;-75
2024/04/25 07:20:46;;;;;;;;;;;;;;;23.36;47.64;97623.53;6537420;21;20328;-78
2024/04/25 07:23:11;;;;;;;;;;;;;;;23.41;47.65;97617.53;6537340;21;19921;-76
2024/04/25 07:25:37;;;;;;;;;;;;;;;23.47;47.36;97620.09;6537285;21;19929;-78
2024/04/25 07:28:03;;;;;;;;;;;;;;;23.57;47.18;97619.53;6580750;21;20252;-75
2024/04/25 07:30:28;;;;;;;;;;;;;;;23.64;46.54;97619.41;6537114;21;19922;-75
2024/04/25 07:32:53;;;;;;;;;;;;;;;23.71;46.05;97612.16;6583232;21;19921;-76
2024/04/25 07:35:18;;;;;;;;;;;;;;;23.75;46.40;97609.84;6580002;21;19928;-73
2024/04/25 07:37:44;;;;;;;;;;;;;;;23.75;46.29;97610.66;6580796;21;19928;-75
2024/04/25 07:40:09;;;;;;;;;;;;;;;23.82;46.31;97606.03;6538311;21;20205;-75
2024/04/25 07:42:35;;;;;;;;;;;;;;;23.83;45.48;97617.47;6582842;21;19922;-74
2024/04/25 07:45:01;;;;;;;;;;;;;;;23.79;45.91;97609.16;6582828;21;19929;-75
2024/04/25 07:47:27;;;;;;;;;;;;;;;23.80;45.23;97615.31;6581182;21;20306;-73
2024/04/25 07:49:52;;;;;;;;;;;;;;;23.65;45.27;97613.88;6579850;21;19921;-74
2024/04/25 07:52:18;;;;;;;;;;;;;;;23.50;45.56;97621.50;6537202;21;19921;-72
2024/04/25 07:54:44;;;;;;;;;;;;;;;23.17;46.74;97625.44;6581375;21;19928;-78
2024/04/25 07:57:09;;;;;;;;;;;;;;;23.07;46.80;97617.97;6580596;21;19928;-78
2024/04/25 07:59:34;;;;;;;;;;;;;;;22.77;47.75;97633.88;6580545;21;20229;-76
2024/04/25 08:02:00;;;;;;;;;;;;;;;22.82;47.70;97642.00;6537122;21;19932;-73
2024/04/25 08:04:25;;;;;;;;;;;;;;;22.73;47.56;97628.19;6580235;21;20333;-75
2024/04/25 08:06:50;;;;;;;;;;;;;;;22.56;47.96;97627.97;6580891;21;19929;-74
2024/04/25 08:09:15;;;;;;;;;;;;;;;22.41;48.08;97632.84;6536849;21;19921;-74
2024/04/25 08:11:41;;;;;;;;;;;;;;;22.32;48.88;97631.50;6535691;21;19992;-78
2024/04/25 08:14:06;;;;;;;;;;;;;;;22.48;51.74;97636.22;6581106;21;19991;-77
2024/04/25 08:16:32;;;;;;;;;;;;;;;22.63;52.40;97629.72;6582794;21;19954;-79
2024/04/25 08:18:57;;;;;;;;;;;;;;;22.66;51.41;97627.47;6583903;21;19921;-83
2024/04/25 08:24:25;;;;;;;;;;;;;;;23.02;50.65;97624.97;6583372;21;20221;-78
2024/04/25 08:26:52;;;;;;;;;;;;;;;23.16;50.35;97615.81;6581789;21;19921;-84
2024/04/25 08:29:17;;;;;;;;;;;;;;;23.32;50.63;97610.91;6540001;21;20314;-80
2024/04/25 08:31:42;;;;;;;;;;;;;;;23.37;51.14;97598.53;6582011;21;19992;-79
2024/04/25 08:34:08;;;;;;;;;;;;;;;23.51;50.94;97601.00;6536662;21;19929;-80
2024/04/25 08:36:37;;;;;;;;;;;;;;;23.68;50.36;97599.28;6580042;21;20217;-84
2024/04/25 08:39:03;;;;;;;;;;;;;;;23.82;49.57;97603.34;6580790;21;19933;-79
2024/04/25 08:41:28;;;;;;;;;;;;;;;24.05;48.93;97606.31;6536861;21;19983;-81
2024/04/25 08:43:53;;;;;;;;;;;;;;;24.23;48.10;97600.84;6580300;21;19922;-78
2024/04/25 08:46:22;;;;;;;;;;;;;;;24.35;47.64;97595.50;6582380;21;19954;-82
2024/04/25 08:48:49;;;;;;;;;;;;;;;24.68;47.19;97596.75;6580705;21;19929;-79
2024/04/25 08:51:14;;;;;;;;;;;;;;;24.97;46.51;97589.59;6536675;21;19921;-80
2024/04/25 08:53:40;;;;;;;;;;;;;;;25.06;46.47;97592.69;6580385;21;19922;-80
2024/04/25 08:56:06;;;;;;;;;;;;;;;25.33;44.82;97587.59;6536661;21;20297;-79
2024/04/25 08:58:32;;;;;;;;;;;;;;;25.50;45.22;97594.81;6535809;21;19921;-79
2024/04/25 09:00:58;;;;;;;;;;;;;;;25.71;44.35;97586.06;6580565;21;19991;-78
2024/04/25 09:03:24;;;;;;;;;;;;;;;25.68;44.26;97589.25;6582646;21;19932;-80
2024/04/25 09:05:49;;;;;;;;;;;;;;;26.10;43.46;97596.88;6580343;21;20294;-80
2024/04/25 09:08:15;;;;;;;;;;;;;;;26.25;42.94;97590.94;6580247;21;19933;-78
2024/04/25 09:10:40;;;;;;;;;;;;;;;26.43;42.51;97589.03;6580369;21;19921;-80
2024/04/25 09:13:05;;;;;;;;;;;;;;;26.50;43.11;97589.63;6580848;21;19921;-80
2024/04/25 09:15:31;;;;;;;;;;;;;;;26.61;42.52;97594.06;6579903;21;19921;-80
2024/04/25 09:17:59;;;;;;;;;;;;;;;26.72;41.45;97578.97;6536838;21;19921;-80
2024/04/25 09:20:27;;;;;;;;;;;;;;;26.77;41.06;97580.91;6582147;21;19921;-81
2024/04/25 09:22:52;;;;;;;;;;;;;;;26.73;41.40;97577.91;6585785;21;19929;-80
2024/04/25 09:25:18;;;;;;;;;;;;;;;26.69;41.17;97582.13;6584464;21;19929;-80
2024/04/25 09:27:43;;;;;;;;;;;;;;;26.56;40.55;97590.53;6536401;21;19922;-80
2024/04/25 09:30:09;;;;;;;;;;;;;;;26.33;41.55;97595.06;6536712;21;19921;-80
2024/04/25 09:32:35;;;;;;;;;;;;;;;26.11;42.48;97589.66;6536738;21;19928;-78
2024/04/25 09:35:00;;;;;;;;;;;;;;;26.08;42.50;97587.50;6578641;21;19933;-81
2024/04/25 09:37:25;;;;;;;;;;;;;;;26.03;41.59;97582.88;6536555;21;19921;-79
2024/04/25 09:39:51;;;;;;;;;;;;;;;26.12;42.26;97585.91;6579623;21;19985;-79
2024/04/25 09:42:16;;;;;;;;;;;;;;;26.20;42.03;97582.81;6582161;21;19928;-80
2024/04/25 09:44:41;;;;;;;;;;;;;;;26.46;41.42;97570.59;6579994;21;19925;-80
2024/04/25 09:47:08;;;;;;;;;;;;;;;26.78;41.00;97566.47;6536249;21;19921;-80
2024/04/25 09:49:50;;;;;;;;;;;;;;;27.04;41.48;97563.00;6579685;21;19990;-82
2024/04/25 09:52:20;;;;;;;;;;;;;;;27.18;39.84;97555.34;6581841;21;19925;-82
2024/04/25 09:54:46;;;;;;;;;;;;;;;27.26;40.68;97562.94;6536339;21;19921;-79
2024/04/25 09:57:12;;;;;;;;;;;;;;;27.07;39.51;97559.81;6536379;21;19929;-79
2024/04/25 09:59:52;;;;;;;;;;;;;;;26.99;40.68;97562.94;6538604;21;19922;-81
2024/04/25 10:02:19;;;;;;;;;;;;;;;26.94;40.53;97573.59;6538398;21;20306;-80
2024/04/25 10:04:44;;;;;;;;;;;;;;;27.01;40.51;97550.13;6581795;21;19929;-79
2024/04/25 10:07:10;;;;;;;;;;;;;;;27.00;40.10;97555.72;6582370;21;19921;-79
2024/04/25 10:09:35;;;;;;;;;;;;;;;27.32;40.13;97544.25;6581842;21;20230;-79
2024/04/25 10:12:03;;;;;;;;;;;;;;;27.06;40.87;97542.13;6538555;21;19933;-84
2024/04/25 10:14:28;;;;;;;;;;;;;;;27.25;40.00;97539.09;6538781;21;19929;-79
2024/04/25 10:16:54;;;;;;;;;;;;;;;27.36;40.31;97527.44;6582524;21;19921;-82
2024/04/25 10:19:19;;;;;;;;;;;;;;;27.54;39.11;97520.84;6538478;21;19921;-81
2024/04/25 10:21:45;;;;;;;;;;;;;;;27.57;39.33;97508.81;6538210;21;20040;-81
2024/04/25 10:24:11;;;;;;;;;;;;;;;27.65;38.33;97494.13;6581706;21;19926;-81
2024/04/25 10:26:36;;;;;;;;;;;;;;;27.64;38.68;97487.94;6537881;21;20340;-81
2024/04/25 10:29:08;;;;;;;;;;;;;;;27.70;38.14;97491.47;6582157;21;20329;-81
2024/04/25 10:31:36;;;;;;;;;;;;;;;27.73;38.61;97489.09;6584082;21;20305;-79
2024/04/25 10:34:02;;;;;;;;;;;;;;;27.61;39.04;97496.50;6584116;21;19994;-78
2024/04/25 10:36:27;;;;;;;;;;;;;;;27.69;37.85;97487.19;6581711;21;20334;-79
2024/04/25 10:38:53;;;;;;;;;;;;;;;27.20;38.69;97485.44;6582079;21;19928;-80
2024/04/25 10:41:18;;;;;;;;;;;;;;;27.13;39.01;97488.34;6581816;21;19921;-79
2024/04/25 10:43:45;;;;;;;;;;;;;;;27.10;39.03;97498.75;6584772;21;19921;-79
2024/04/25 10:46:10;;;;;;;;;;;;;;;26.67;40.61;97509.31;6584790;21;20223;-78
2024/04/25 10:48:35;;;;;;;;;;;;;;;26.22;41.27;97508.53;6581865;21;19921;-79
2024/04/25 10:51:00;;;;;;;;;;;;;;;26.24;41.23;97494.91;6582075;21;19921;-79
2024/04/25 10:53:26;;;;;;;;;;;;;;;26.16;41.93;97501.47;6538073;21;19927;-79
2024/04/25 10:55:51;;;;;;;;;;;;;;;26.08;41.88;97489.34;6581805;21;19921;-80
2024/04/25 10:58:16;;;;;;;;;;;;;;;26.12;41.76;97498.47;6581567;21;19929;-79
2024/04/25 11:00:42;;;;;;;;;;;;;;;25.94;42.99;97506.78;6538138;21;19926;-81
2024/04/25 11:03:11;;;;;;;;;;;;;;;25.87;43.23;97487.41;6581464;21;20195;-79
2024/04/25 11:05:37;;;;;;;;;;;;;;;25.71;43.83;97505.09;6583562;21;19929;-78
2024/04/25 11:08:02;;;;;;;;;;;;;;;25.40;44.04;97496.63;6580533;21;20202;-79
2024/04/25 11:10:28;;;;;;;;;;;;;;;25.26;45.09;97498.78;6583567;21;19921;-78
2024/04/25 11:12:53;;;;;;;;;;;;;;;25.14;44.96;97488.16;6537701;21;19987;-79
2024/04/25 11:15:18;;;;;;;;;;;;;;;25.03;44.81;97467.69;6537814;21;19929;-79
2024/04/25 11:17:44;;;;;;;;;;;;;;;24.82;45.25;97480.69;6537593;21;20189;-79
2024/04/25 11:20:09;;;;;;;;;;;;;;;24.61;45.27;97492.84;6583463;21;19921;-78
2024/04/25 11:22:35;;;;;;;;;;;;;;;24.42;46.14;97473.50;6581030;21;19921;-77
2024/04/25 11:25:11;;;;;;;;;;;;;;;24.25;46.49;97481.44;6580717;21;19921;-79
2024/04/25 11:27:36;;;;;;;;;;;;;;;23.97;47.21;97496.34;6538140;21;19932;-79
2024/04/25 11:30:02;;;;;;;;;;;;;;;23.74;48.06;97512.31;6581361;21;19921;-79
2024/04/25 11:32:27;;;;;;;;;;;;;;;23.54;49.08;97513.44;6583730;21;19928;-80
2024/04/25 11:34:52;;;;;;;;;;;;;;;23.33;49.84;97532.66;6581566;21;19921;-78
2024/04/25 11:37:17;;;;;;;;;;;;;;;23.17;50.96;97544.78;6582062;21;19921;-78
2024/04/25 11:39:48;;;;;;;;;;;;;;;23.03;51.70;97530.81;6583555;21;19929;-79
2024/04/25 11:42:14;;;;;;;;;;;;;;;22.93;52.89;97504.75;6537349;21;19950;-80
2024/04/25 11:44:39;;;;;;;;;;;;;;;22.87;53.21;97479.84;6580970;21;19929;-82
2024/04/25 11:47:04;;;;;;;;;;;;;;;22.85;53.64;97475.78;6537219;21;20269;-80
2024/04/25 11:49:30;;;;;;;;;;;;;;;22.84;54.14;97482.16;6537723;21;19925;-78
2024/04/25 11:51:55;;;;;;;;;;;;;;;22.92;54.55;97503.91;6583512;21;19929;-78
2024/04/25 11:54:21;;;;;;;;;;;;;;;23.06;54.62;97493.09;6537915;21;19928;-79
2024/04/25 11:56:46;;;;;;;;;;;;;;;23.30;54.20;97478.00;6580684;21;19922;-79
2024/04/25 11:59:11;;;;;;;;;;;;;;;23.48;54.31;97453.13;6580994;21;19921;-78
2024/04/25 12:01:36;;;;;;;;;;;;;;;23.65;54.14;97440.72;6537484;21;19991;-80
2024/04/25 12:04:02;;;;;;;;;;;;;;;23.86;54.52;97430.53;6537448;21;20219;-79
2024/04/25 12:06:27;;;;;;;;;;;;;;;24.01;54.75;97420.19;6537195;21;20329;-78
2024/04/25 12:08:52;;;;;;;;;;;;;;;24.18;54.96;97416.78;6537610;21;19922;-78
2024/04/25 12:11:18;;;;;;;;;;;;;;;24.25;54.95;97424.66;6581544;21;19921;-78
2024/04/25 12:13:45;;;;;;;;;;;;;;;24.38;55.13;97417.19;6537248;21;19998;-79
2024/04/25 12:16:11;;;;;;;;;;;;;;;24.50;54.95;97421.66;6538242;21;19929;-79
2024/04/25 12:18:38;;;;;;;;;;;;;;;24.59;54.99;97404.25;6536869;21;20309;-79
2024/04/25 12:21:03;;;;;;;;;;;;;;;24.73;54.51;97408.22;6582360;21;20003;-77
2024/04/25 12:23:29;;;;;;;;;;;;;;;24.79;54.68;97410.97;6583167;21;20210;-78
2024/04/25 12:25:54;;;;;;;;;;;;;;;24.87;54.36;97399.91;6582445;21;20391;-78
2024/04/25 12:28:19;;;;;;;;;;;;;;;24.89;53.97;97409.28;6582822;21;19934;-78
2024/04/25 12:30:45;;;;;;;;;;;;;;;24.88;53.65;97396.97;6580837;21;19921;-80
2024/04/25 12:33:11;;;;;;;;;;;;;;;24.83;53.75;97407.59;6582844;21;19928;-80
2024/04/25 12:35:36;;;;;;;;;;;;;;;24.82;53.38;97402.50;6536625;21;19928;-78
2024/04/25 12:38:03;;;;;;;;;;;;;;;24.71;53.58;97417.50;6536610;21;20202;-79
2024/04/25 12:40:29;;;;;;;;;;;;;;;24.66;53.43;97414.75;6537355;21;19927;-79
2024/04/25 12:42:54;;;;;;;;;;;;;;;24.63;53.22;97393.91;6582417;21;19929;-79
2024/04/25 12:45:23;;;;;;;;;;;;;;;24.47;53.36;97374.91;6579647;21;20234;-80
2024/04/25 12:47:48;;;;;;;;;;;;;;;24.29;53.31;97353.78;6579632;21;19921;-81